createdAt,value
2018-04-27T00:00:01.258Z,8.10
2018-04-27T00:02:29.519Z,8.10
2018-04-27T00:04:57.783Z,8.10
2018-04-27T00:07:25.377Z,8.10
2018-04-27T00:09:53.636Z,8.00
2018-04-27T00:12:21.285Z,8.00
2018-04-27T00:14:48.713Z,8.00
2018-04-27T00:17:16.211Z,8.00
2018-04-27T00:19:43.793Z,8.00
2018-04-27T00:22:12.092Z,8.00
2018-04-27T00:24:39.585Z,8.00
2018-04-27T00:27:07.060Z,7.90
2018-04-27T00:29:35.309Z,7.90
2018-04-27T00:32:02.813Z,7.90
2018-04-27T00:34:31.090Z,7.90
2018-04-27T00:36:59.346Z,7.90
2018-04-27T00:39:27.646Z,7.90
2018-04-27T00:41:55.894Z,7.90
2018-04-27T00:44:24.894Z,7.80
2018-04-27T00:46:52.381Z,7.80
2018-04-27T00:49:19.852Z,7.80
2018-04-27T00:51:47.397Z,7.80
2018-04-27T00:54:14.935Z,7.80
2018-04-27T00:56:43.213Z,7.80
2018-04-27T00:59:11.501Z,7.70
2018-04-27T01:01:39.750Z,7.70
2018-04-27T01:04:07.222Z,7.70
2018-04-27T01:06:35.482Z,7.70
2018-04-27T01:09:03.002Z,7.70
2018-04-27T01:11:30.624Z,7.70
2018-04-27T01:13:58.892Z,7.70
2018-04-27T01:16:26.402Z,7.60
2018-04-27T01:18:53.923Z,7.70
2018-04-27T01:21:22.173Z,7.60
2018-04-27T01:23:49.768Z,7.60
2018-04-27T01:26:18.017Z,7.60
2018-04-27T01:28:46.300Z,7.60
2018-04-27T01:31:14.560Z,7.60
2018-04-27T01:33:43.627Z,7.60
2018-04-27T01:36:11.118Z,7.60
2018-04-27T01:38:38.645Z,7.60
2018-04-27T01:41:06.146Z,7.50
2018-04-27T01:43:33.727Z,7.50
2018-04-27T01:46:01.279Z,7.50
2018-04-27T01:48:29.533Z,7.50
2018-04-27T01:50:57.925Z,7.50
2018-04-27T01:53:26.183Z,7.50
2018-04-27T01:55:54.434Z,7.40
2018-04-27T01:58:21.937Z,7.50
2018-04-27T02:00:50.226Z,7.40
2018-04-27T02:03:18.529Z,7.50
2018-04-27T02:05:46.009Z,7.40
2018-04-27T02:08:13.552Z,7.40
2018-04-27T02:10:41.000Z,7.40
2018-04-27T02:13:08.414Z,7.40
2018-04-27T02:15:36.608Z,7.40
2018-04-27T02:18:04.043Z,7.40
2018-04-27T02:20:32.254Z,7.40
2018-04-27T02:22:59.678Z,7.40
2018-04-27T02:25:27.887Z,7.40
2018-04-27T02:27:55.327Z,7.40
2018-04-27T02:30:22.773Z,7.40
2018-04-27T02:32:50.979Z,7.40
2018-04-27T02:35:18.412Z,7.40
2018-04-27T02:37:45.835Z,7.40
2018-04-27T02:40:13.293Z,7.40
2018-04-27T02:42:40.821Z,7.30
2018-04-27T02:45:08.263Z,7.40
2018-04-27T02:47:35.716Z,7.30
2018-04-27T02:50:03.238Z,7.30
2018-04-27T02:52:31.423Z,7.30
2018-04-27T02:54:59.631Z,7.30
2018-04-27T02:57:27.061Z,7.20
2018-04-27T02:59:54.572Z,7.20
2018-04-27T03:02:21.998Z,7.20
2018-04-27T03:04:49.442Z,7.20
2018-04-27T03:07:16.879Z,7.20
2018-04-27T03:09:45.072Z,7.10
2018-04-27T03:12:12.552Z,7.10
2018-04-27T03:14:39.977Z,7.10
2018-04-27T03:17:07.419Z,7.10
2018-04-27T03:19:35.627Z,7.10
2018-04-27T03:22:03.059Z,7.00
2018-04-27T03:24:31.271Z,7.00
2018-04-27T03:26:58.695Z,7.00
2018-04-27T03:29:26.193Z,7.00
2018-04-27T03:31:53.654Z,6.90
2018-04-27T03:34:21.110Z,6.90
2018-04-27T03:36:48.567Z,6.90
2018-04-27T03:39:16.001Z,6.90
2018-04-27T03:41:43.419Z,6.80
2018-04-27T03:44:11.613Z,6.80
2018-04-27T03:46:39.839Z,6.70
2018-04-27T03:49:07.287Z,6.70
2018-04-27T03:51:34.789Z,6.70
2018-04-27T03:54:02.984Z,6.60
2018-04-27T03:56:30.415Z,6.60
2018-04-27T03:58:58.646Z,6.50
2018-04-27T04:01:37.889Z,6.50
2018-04-27T04:04:17.255Z,6.50
2018-04-27T04:06:45.492Z,6.40
2018-04-27T04:09:12.938Z,6.40
2018-04-27T04:11:40.366Z,6.40
2018-04-27T04:14:08.571Z,6.30
2018-04-27T04:16:35.991Z,6.30
2018-04-27T04:19:04.231Z,6.20
2018-04-27T04:21:31.666Z,6.20
2018-04-27T04:23:59.090Z,6.20
2018-04-27T04:26:26.527Z,6.10
2018-04-27T04:28:54.719Z,6.10
2018-04-27T04:31:22.935Z,6.10
2018-04-27T04:33:50.499Z,6.10
2018-04-27T04:36:17.919Z,6.10
2018-04-27T04:38:45.343Z,6.10
2018-04-27T04:41:12.774Z,6.10
2018-04-27T04:43:40.227Z,6.00
2018-04-27T04:46:07.663Z,6.00
2018-04-27T04:48:35.148Z,6.00
2018-04-27T04:51:02.579Z,6.00
2018-04-27T04:53:30.000Z,6.00
2018-04-27T04:55:58.254Z,6.10
2018-04-27T04:58:25.685Z,6.10
2018-04-27T05:00:53.127Z,6.10
2018-04-27T05:03:20.588Z,6.20
2018-04-27T05:05:48.022Z,6.20
2018-04-27T05:08:15.499Z,6.30
2018-04-27T05:10:43.729Z,6.40
2018-04-27T05:13:11.121Z,6.40
2018-04-27T05:15:38.603Z,6.50
2018-04-27T05:18:17.946Z,6.50
2018-04-27T05:20:45.495Z,6.60
2018-04-27T05:23:12.962Z,6.60
2018-04-27T05:25:40.549Z,6.70
2018-04-27T05:28:07.976Z,6.80
2018-04-27T05:30:35.439Z,6.80
2018-04-27T05:33:04.719Z,6.90
2018-04-27T05:35:32.155Z,6.90
2018-04-27T05:37:59.646Z,7.00
2018-04-27T05:40:27.097Z,7.10
2018-04-27T05:42:54.603Z,7.20
2018-04-27T05:45:22.807Z,7.30
2018-04-27T05:47:50.232Z,7.30
2018-04-27T05:50:18.453Z,7.40
2018-04-27T05:52:45.888Z,7.40
2018-04-27T05:55:13.345Z,7.50
2018-04-27T05:57:40.803Z,7.50
2018-04-27T06:00:08.247Z,7.60
2018-04-27T06:02:35.659Z,7.60
2018-04-27T06:05:03.974Z,7.80
2018-04-27T06:07:31.438Z,7.80
2018-04-27T06:09:58.911Z,7.90
2018-04-27T06:12:26.357Z,8.00
2018-04-27T06:14:53.792Z,8.00
2018-04-27T06:17:21.222Z,8.10
2018-04-27T06:19:48.715Z,8.10
2018-04-27T06:22:16.175Z,8.20
2018-04-27T06:24:43.675Z,8.20
2018-04-27T06:27:11.908Z,8.40
2018-04-27T06:29:39.370Z,8.40
2018-04-27T06:32:06.830Z,8.50
2018-04-27T06:34:34.271Z,8.60
2018-04-27T06:37:01.695Z,8.60
2018-04-27T06:39:29.934Z,8.70
2018-04-27T06:41:57.369Z,8.70
2018-04-27T06:44:24.820Z,8.80
2018-04-27T06:46:52.239Z,8.90
2018-04-27T06:49:20.447Z,9.10
2018-04-27T06:51:47.896Z,9.10
2018-04-27T06:54:15.329Z,9.20
2018-04-27T06:56:43.591Z,9.30
2018-04-27T06:59:11.862Z,9.40
2018-04-27T07:01:39.249Z,9.40
2018-04-27T07:04:06.731Z,9.50
2018-04-27T07:06:34.204Z,9.70
2018-04-27T07:09:01.637Z,9.80
2018-04-27T07:11:29.116Z,9.90
2018-04-27T07:13:56.567Z,10.00
2018-04-27T07:16:24.007Z,10.10
2018-04-27T07:18:51.439Z,10.20
2018-04-27T07:21:18.940Z,10.30
2018-04-27T07:23:46.367Z,10.50
2018-04-27T07:26:14.591Z,10.60
2018-04-27T07:28:42.130Z,10.60
2018-04-27T07:31:09.577Z,10.70
2018-04-27T07:33:37.078Z,10.90
2018-04-27T07:36:04.646Z,11.00
2018-04-27T07:38:32.158Z,11.10
2018-04-27T07:40:59.591Z,11.10
2018-04-27T07:43:27.090Z,11.30
2018-04-27T07:45:54.565Z,11.30
2018-04-27T07:48:22.093Z,11.50
2018-04-27T07:50:49.551Z,11.50
2018-04-27T07:53:16.996Z,11.60
2018-04-27T07:55:44.545Z,11.70
2018-04-27T07:58:11.927Z,11.80
2018-04-27T08:00:39.365Z,11.90
2018-04-27T08:03:06.799Z,11.90
2018-04-27T08:05:34.290Z,12.00
2018-04-27T08:08:01.738Z,12.10
2018-04-27T08:10:29.171Z,12.10
2018-04-27T08:12:57.380Z,12.10
2018-04-27T08:15:24.860Z,12.10
2018-04-27T08:17:52.307Z,12.20
2018-04-27T08:20:19.751Z,12.20
2018-04-27T08:22:47.181Z,12.30
2018-04-27T08:25:14.645Z,12.30
2018-04-27T08:27:42.131Z,12.50
2018-04-27T08:30:09.606Z,12.60
2018-04-27T08:32:37.031Z,12.60
2018-04-27T08:35:04.535Z,12.70
2018-04-27T08:37:32.087Z,12.80
2018-04-27T08:39:59.539Z,12.80
2018-04-27T08:42:27.002Z,12.90
2018-04-27T08:44:54.464Z,13.00
2018-04-27T08:47:21.903Z,13.10
2018-04-27T08:49:49.420Z,13.10
2018-04-27T08:52:16.862Z,13.10
2018-04-27T08:54:45.079Z,13.30
2018-04-27T08:57:12.619Z,13.20
2018-04-27T08:59:42.388Z,13.40
2018-04-27T09:02:09.897Z,13.60
2018-04-27T09:04:37.365Z,13.60
2018-04-27T09:07:04.813Z,13.60
2018-04-27T09:09:32.268Z,13.60
2018-04-27T09:11:59.752Z,13.60
2018-04-27T09:14:27.230Z,13.70
2018-04-27T09:16:54.678Z,13.70
2018-04-27T09:19:22.131Z,13.70
2018-04-27T09:21:49.573Z,13.70
2018-04-27T09:24:17.006Z,13.90
2018-04-27T09:26:44.482Z,13.90
2018-04-27T09:29:11.947Z,14.00
2018-04-27T09:31:39.413Z,14.00
2018-04-27T09:34:06.842Z,14.00
2018-04-27T09:36:34.317Z,14.00
2018-04-27T09:39:01.759Z,14.00
2018-04-27T09:41:29.231Z,14.10
2018-04-27T09:43:56.678Z,14.00
2018-04-27T09:46:24.132Z,14.00
2018-04-27T09:48:51.559Z,14.00
2018-04-27T09:51:19.047Z,13.90
2018-04-27T09:53:46.479Z,13.90
2018-04-27T09:56:13.931Z,13.90
2018-04-27T09:58:42.136Z,14.00
2018-04-27T10:01:09.546Z,13.90
2018-04-27T10:03:37.740Z,14.10
2018-04-27T10:06:05.934Z,14.20
2018-04-27T10:08:33.367Z,14.20
2018-04-27T10:11:01.625Z,14.40
2018-04-27T10:13:28.980Z,14.40
2018-04-27T10:15:57.183Z,14.50
2018-04-27T10:18:24.624Z,14.50
2018-04-27T10:20:52.834Z,14.70
2018-04-27T10:23:20.266Z,14.70
2018-04-27T10:25:48.478Z,15.00
2018-04-27T10:28:15.936Z,14.90
2018-04-27T10:30:43.388Z,15.10
2018-04-27T10:33:10.819Z,15.10
2018-04-27T10:35:38.317Z,15.10
2018-04-27T10:38:05.747Z,15.10
2018-04-27T10:40:33.215Z,15.10
2018-04-27T10:43:00.706Z,15.00
2018-04-27T10:45:28.231Z,15.00
2018-04-27T10:47:55.690Z,14.90
2018-04-27T10:50:23.225Z,14.80
2018-04-27T10:52:51.430Z,14.80
2018-04-27T10:55:18.900Z,14.80
2018-04-27T10:57:46.331Z,14.80
2018-04-27T11:00:13.806Z,14.80
2018-04-27T11:02:43.022Z,14.80
2018-04-27T11:05:10.570Z,14.80
2018-04-27T11:07:38.005Z,14.80
2018-04-27T11:10:05.471Z,15.00
2018-04-27T11:12:32.899Z,15.20
2018-04-27T11:15:00.349Z,15.50
2018-04-27T11:17:28.545Z,16.20
2018-04-27T11:19:55.984Z,16.20
2018-04-27T11:22:23.414Z,16.40
2018-04-27T11:24:51.740Z,16.80
2018-04-27T11:27:19.143Z,16.80
2018-04-27T11:29:46.757Z,16.70
2018-04-27T11:32:14.237Z,16.80
2018-04-27T11:34:41.671Z,16.80
2018-04-27T11:37:09.151Z,16.80
2018-04-27T11:39:36.592Z,16.70
2018-04-27T11:42:04.031Z,16.70
2018-04-27T11:44:31.455Z,16.90
2018-04-27T11:46:59.801Z,17.00
2018-04-27T11:49:27.225Z,16.90
2018-04-27T11:51:54.667Z,17.20
2018-04-27T11:54:22.103Z,17.40
2018-04-27T11:56:49.577Z,17.50
2018-04-27T11:59:17.789Z,17.60
2018-04-27T12:01:45.266Z,17.60
2018-04-27T12:04:12.705Z,17.60
2018-04-27T12:06:40.174Z,17.70
2018-04-27T12:09:07.655Z,17.70
2018-04-27T12:11:35.090Z,17.80
2018-04-27T12:14:02.547Z,17.80
2018-04-27T12:16:29.976Z,17.70
2018-04-27T12:18:57.414Z,17.60
2018-04-27T12:21:24.860Z,17.50
2018-04-27T12:23:53.070Z,17.40
2018-04-27T12:26:20.511Z,17.40
2018-04-27T12:28:47.991Z,17.40
2018-04-27T12:31:15.539Z,17.40
2018-04-27T12:33:42.892Z,17.40
2018-04-27T12:36:10.371Z,17.50
2018-04-27T12:38:37.789Z,17.40
2018-04-27T12:41:05.291Z,17.30
2018-04-27T12:43:32.724Z,17.20
2018-04-27T12:46:00.191Z,17.10
2018-04-27T12:48:27.620Z,17.00
2018-04-27T12:50:55.051Z,16.90
2018-04-27T12:53:22.591Z,16.70
2018-04-27T12:55:50.132Z,16.50
2018-04-27T12:58:18.526Z,16.30
2018-04-27T13:00:45.961Z,16.20
2018-04-27T13:03:13.390Z,16.20
2018-04-27T13:05:40.848Z,16.10
2018-04-27T13:08:08.342Z,16.10
2018-04-27T13:10:35.775Z,16.10
2018-04-27T13:13:03.253Z,16.20
2018-04-27T13:15:30.663Z,16.40
2018-04-27T13:17:58.911Z,16.50
2018-04-27T13:20:27.167Z,16.70
2018-04-27T13:22:54.645Z,16.70
2018-04-27T13:25:22.177Z,16.90
2018-04-27T13:27:49.608Z,17.10
2018-04-27T13:30:17.094Z,17.40
2018-04-27T13:32:44.512Z,17.50
2018-04-27T13:35:11.939Z,17.60
2018-04-27T13:37:40.137Z,17.60
2018-04-27T13:40:08.356Z,17.70
2018-04-27T13:42:35.792Z,17.70
2018-04-27T13:45:03.270Z,17.80
2018-04-27T13:47:30.697Z,18.10
2018-04-27T13:49:58.162Z,18.50
2018-04-27T13:52:25.631Z,18.60
2018-04-27T13:54:53.063Z,18.50
2018-04-27T13:57:20.557Z,18.50
2018-04-27T13:59:48.875Z,18.50
2018-04-27T14:02:16.393Z,18.40
2018-04-27T14:04:43.824Z,18.60
2018-04-27T14:07:12.163Z,18.60
2018-04-27T14:09:40.402Z,18.90
2018-04-27T14:12:07.840Z,18.90
2018-04-27T14:14:35.251Z,18.60
2018-04-27T14:17:02.682Z,18.30
2018-04-27T14:19:30.115Z,18.10
2018-04-27T14:21:57.610Z,18.00
2018-04-27T14:24:25.040Z,18.30
2018-04-27T14:26:52.487Z,18.80
2018-04-27T14:29:19.919Z,18.80
2018-04-27T14:31:47.347Z,18.60
2018-04-27T14:34:14.813Z,18.50
2018-04-27T14:36:43.077Z,18.00
2018-04-27T14:39:10.500Z,18.00
2018-04-27T14:41:37.999Z,17.90
2018-04-27T14:44:05.495Z,17.80
2018-04-27T14:46:32.970Z,17.80
2018-04-27T14:49:00.411Z,17.80
2018-04-27T14:51:28.692Z,17.60
2018-04-27T14:53:56.163Z,17.60
2018-04-27T14:56:23.655Z,17.60
2018-04-27T14:58:51.095Z,17.50
2018-04-27T15:01:18.543Z,17.50
2018-04-27T15:03:45.988Z,17.30
2018-04-27T15:06:13.433Z,17.20
2018-04-27T15:08:40.963Z,17.00
2018-04-27T15:11:09.281Z,16.80
2018-04-27T15:13:36.736Z,16.70
2018-04-27T15:16:04.206Z,16.70
2018-04-27T15:18:31.654Z,16.60
2018-04-27T15:20:59.098Z,16.60
2018-04-27T15:23:26.559Z,16.60
2018-04-27T15:25:53.993Z,16.60
2018-04-27T15:28:21.487Z,16.70
2018-04-27T15:30:48.934Z,16.80
2018-04-27T15:33:16.394Z,17.00
2018-04-27T15:35:43.853Z,17.10
2018-04-27T15:38:11.336Z,17.20
2018-04-27T15:40:38.811Z,17.50
2018-04-27T15:43:06.269Z,18.10
2018-04-27T15:45:33.691Z,18.70
2018-04-27T15:48:01.162Z,19.10
2018-04-27T15:50:28.595Z,19.60
2018-04-27T15:52:56.028Z,20.10
2018-04-27T15:55:23.455Z,20.60
2018-04-27T15:57:51.696Z,21.10
2018-04-27T16:00:19.148Z,21.00
2018-04-27T16:02:46.623Z,21.50
2018-04-27T16:05:14.912Z,22.30
2018-04-27T16:07:43.179Z,22.40
2018-04-27T16:10:10.605Z,22.40
2018-04-27T16:12:38.033Z,21.80
2018-04-27T16:15:05.541Z,21.00
2018-04-27T16:17:33.027Z,20.40
2018-04-27T16:20:00.463Z,19.90
2018-04-27T16:22:27.904Z,19.40
2018-04-27T16:24:55.334Z,19.00
2018-04-27T16:27:22.767Z,18.70
2018-04-27T16:29:50.983Z,18.40
2018-04-27T16:32:18.442Z,18.40
2018-04-27T16:34:45.893Z,18.30
2018-04-27T16:37:13.409Z,18.20
2018-04-27T16:39:41.659Z,18.10
2018-04-27T16:42:09.210Z,18.10
2018-04-27T16:44:36.655Z,18.00
2018-04-27T16:47:04.107Z,17.80
2018-04-27T16:49:31.575Z,17.60
2018-04-27T16:51:59.022Z,17.60
2018-04-27T16:54:26.525Z,17.50
2018-04-27T16:56:53.891Z,17.50
2018-04-27T16:59:22.078Z,17.30
2018-04-27T17:01:49.511Z,17.20
2018-04-27T17:04:16.947Z,17.10
2018-04-27T17:06:44.388Z,17.00
2018-04-27T17:09:11.851Z,16.90
2018-04-27T17:11:39.310Z,16.90
2018-04-27T17:14:06.750Z,16.90
2018-04-27T17:16:34.221Z,16.90
2018-04-27T17:19:01.658Z,16.90
2018-04-27T17:21:29.119Z,16.80
2018-04-27T17:23:56.555Z,16.70
2018-04-27T17:26:23.988Z,16.60
2018-04-27T17:28:52.236Z,16.50
2018-04-27T17:31:19.676Z,16.50
2018-04-27T17:33:47.149Z,16.50
2018-04-27T17:36:14.590Z,16.40
2018-04-27T17:38:42.021Z,16.30
2018-04-27T17:41:09.505Z,16.30
2018-04-27T17:43:36.931Z,16.30
2018-04-27T17:46:04.412Z,16.20
2018-04-27T17:48:31.848Z,16.10
2018-04-27T17:50:59.295Z,15.90
2018-04-27T17:53:27.567Z,15.60
2018-04-27T17:55:54.968Z,15.60
2018-04-27T17:58:22.413Z,15.50
2018-04-27T18:00:49.847Z,15.40
2018-04-27T18:03:17.275Z,15.30
2018-04-27T18:05:45.516Z,15.20
2018-04-27T18:08:12.935Z,15.20
2018-04-27T18:10:40.367Z,15.10
2018-04-27T18:13:08.628Z,15.00
2018-04-27T18:15:36.142Z,15.00
2018-04-27T18:18:03.641Z,15.00
2018-04-27T18:20:31.103Z,14.90
2018-04-27T18:23:00.122Z,14.60
2018-04-27T18:25:27.675Z,14.60
2018-04-27T18:27:54.979Z,14.60
2018-04-27T18:30:22.458Z,14.50
2018-04-27T18:32:49.893Z,14.40
2018-04-27T18:35:17.324Z,14.30
2018-04-27T18:37:44.768Z,14.30
2018-04-27T18:40:12.992Z,14.20
2018-04-27T18:42:40.455Z,14.20
2018-04-27T18:45:07.887Z,14.20
2018-04-27T18:47:35.363Z,14.20
2018-04-27T18:50:02.814Z,14.20
2018-04-27T18:52:30.270Z,14.10
2018-04-27T18:54:57.722Z,14.10
2018-04-27T18:57:25.180Z,14.00
2018-04-27T18:59:52.622Z,13.90
2018-04-27T19:02:20.949Z,13.80
2018-04-27T19:04:49.909Z,13.80
2018-04-27T19:07:20.068Z,13.80
2018-04-27T19:09:48.309Z,13.80
2018-04-27T19:12:15.745Z,13.80
2018-04-27T19:14:43.268Z,13.70
2018-04-27T19:17:14.457Z,13.70
2018-04-27T19:19:41.930Z,13.70
2018-04-27T19:22:09.370Z,13.60
2018-04-27T19:24:47.327Z,13.60
2018-04-27T19:27:15.523Z,13.50
2018-04-27T19:29:42.960Z,13.50
2018-04-27T19:32:11.183Z,13.40
2018-04-27T19:34:38.630Z,13.40
2018-04-27T19:37:06.067Z,13.40
2018-04-27T19:39:33.550Z,13.30
2018-04-27T19:42:00.981Z,13.30
2018-04-27T19:44:28.480Z,13.30
2018-04-27T19:46:55.906Z,13.30
2018-04-27T19:49:23.377Z,13.20
2018-04-27T19:51:50.795Z,13.20
2018-04-27T19:54:18.983Z,13.10
2018-04-27T19:56:46.417Z,13.10
2018-04-27T19:59:14.651Z,13.10
2018-04-27T20:01:42.083Z,13.10
2018-04-27T20:04:09.601Z,13.10
2018-04-27T20:06:37.811Z,13.00
2018-04-27T20:09:05.239Z,13.00
2018-04-27T20:11:32.709Z,13.00
2018-04-27T20:14:00.229Z,13.10
2018-04-27T20:16:36.539Z,13.10
2018-04-27T20:19:03.984Z,13.00
2018-04-27T20:21:31.461Z,13.10
2018-04-27T20:24:03.666Z,13.00
2018-04-27T20:26:31.104Z,13.10
2018-04-27T20:28:58.592Z,13.00
2018-04-27T20:31:26.064Z,13.00
2018-04-27T20:33:53.506Z,13.00
2018-04-27T20:36:21.747Z,13.00
2018-04-27T20:38:49.201Z,13.00
2018-04-27T20:41:17.421Z,13.00
2018-04-27T20:43:46.664Z,12.90
2018-04-27T20:46:14.105Z,12.90
2018-04-27T20:48:41.568Z,12.90
2018-04-27T20:51:09.012Z,12.80
2018-04-27T20:53:57.053Z,12.80
2018-04-27T20:56:25.303Z,12.70
2018-04-27T20:58:53.504Z,12.60
2018-04-27T21:01:20.963Z,12.60
2018-04-27T21:03:48.402Z,12.60
2018-04-27T21:06:16.646Z,12.50
2018-04-27T21:08:44.086Z,12.50
2018-04-27T21:11:11.632Z,12.50
2018-04-27T21:13:39.097Z,12.50
2018-04-27T21:16:06.531Z,12.50
2018-04-27T21:18:34.015Z,13.60
2018-04-27T21:21:01.435Z,12.40
2018-04-27T21:23:28.879Z,12.40
2018-04-27T21:25:56.360Z,12.40
2018-04-27T21:28:25.450Z,12.40
2018-04-27T21:30:52.867Z,12.40
2018-04-27T21:33:35.651Z,12.40
2018-04-27T21:36:03.192Z,12.40
2018-04-27T21:38:49.348Z,12.50
2018-04-27T21:41:17.548Z,12.50
2018-04-27T21:43:44.983Z,12.50
2018-04-27T21:46:13.191Z,12.40
2018-04-27T21:48:40.639Z,12.40
2018-04-27T21:51:08.068Z,12.40
2018-04-27T21:53:36.292Z,12.40
2018-04-27T21:56:03.742Z,12.40
2018-04-27T21:58:31.176Z,12.40
2018-04-27T22:00:58.628Z,12.40
2018-04-27T22:03:26.073Z,12.40
2018-04-27T22:05:57.236Z,12.30
2018-04-27T22:08:32.235Z,12.30
2018-04-27T22:11:00.463Z,12.30
2018-04-27T22:13:30.819Z,12.30
2018-04-27T22:15:58.347Z,12.30
2018-04-27T22:18:25.805Z,12.20
2018-04-27T22:20:54.049Z,12.10
2018-04-27T22:23:24.645Z,12.20
2018-04-27T22:25:52.795Z,12.10
2018-04-27T22:31:27.931Z,12.10
2018-04-27T22:33:56.205Z,12.00
2018-04-27T22:36:30.241Z,12.00
2018-04-27T22:39:19.302Z,12.00
2018-04-27T22:41:56.455Z,12.00
2018-04-27T22:44:23.950Z,11.90
2018-04-27T22:46:54.896Z,12.00
2018-04-27T22:49:22.323Z,11.90
2018-04-27T22:51:49.807Z,11.90
2018-04-27T22:54:37.735Z,12.00
2018-04-27T22:57:14.926Z,11.90
2018-04-27T22:59:42.359Z,12.00
2018-04-27T23:02:19.743Z,12.00
2018-04-27T23:04:53.683Z,12.00
2018-04-27T23:07:24.963Z,12.00
2018-04-27T23:09:54.016Z,12.00
2018-04-27T23:12:21.460Z,12.00
2018-04-27T23:14:51.602Z,12.10
2018-04-27T23:17:19.035Z,12.10
2018-04-27T23:19:49.276Z,12.10
2018-04-27T23:22:28.812Z,12.00
2018-04-27T23:25:12.583Z,12.00
2018-04-27T23:27:40.795Z,12.00
2018-04-27T23:30:08.227Z,12.00
2018-04-27T23:32:36.642Z,12.00
2018-04-27T23:35:04.089Z,12.00
2018-04-27T23:37:31.559Z,12.00
2018-04-27T23:39:59.001Z,12.00
2018-04-27T23:42:26.433Z,12.00
2018-04-27T23:44:54.643Z,12.10
2018-04-27T23:47:22.105Z,12.00
2018-04-27T23:49:49.579Z,12.10
2018-04-27T23:52:17.019Z,12.10
2018-04-27T23:54:44.476Z,12.10
2018-04-27T23:57:11.925Z,12.10
2018-04-27T23:59:40.182Z,12.10
